sensor_id;sensor_type;location;lat;lon;timestamp;P1;durP1;ratioP1;P2;durP2;ratioP2
10031;SDS011;5056;44.272;19.892;2023-07-24T00:01:23;14.30;;;13.05;;
10031;SDS011;5056;44.272;19.892;2023-07-24T00:03:50;14.63;;;13.40;;
10031;SDS011;5056;44.272;19.892;2023-07-24T00:06:19;15.05;;;13.82;;
10031;SDS011;5056;44.272;19.892;2023-07-24T00:08:48;15.48;;;14.35;;
10031;SDS011;5056;44.272;19.892;2023-07-24T00:11:16;15.68;;;14.25;;
10031;SDS011;5056;44.272;19.892;2023-07-24T00:13:44;15.13;;;14.02;;
10031;SDS011;5056;44.272;19.892;2023-07-24T00:16:13;14.65;;;13.38;;
10031;SDS011;5056;44.272;19.892;2023-07-24T00:18:40;14.35;;;13.07;;
10031;SDS011;5056;44.272;19.892;2023-07-24T00:21:07;15.02;;;13.75;;
10031;SDS011;5056;44.272;19.892;2023-07-24T00:23:35;14.85;;;13.55;;
10031;SDS011;5056;44.272;19.892;2023-07-24T00:26:02;14.40;;;13.25;;
10031;SDS011;5056;44.272;19.892;2023-07-24T00:28:32;14.90;;;13.60;;
10031;SDS011;5056;44.272;19.892;2023-07-24T00:30:59;13.35;;;12.32;;
10031;SDS011;5056;44.272;19.892;2023-07-24T00:33:26;14.43;;;13.23;;
10031;SDS011;5056;44.272;19.892;2023-07-24T00:35:55;13.90;;;12.80;;
10031;SDS011;5056;44.272;19.892;2023-07-24T00:38:23;14.60;;;13.40;;
10031;SDS011;5056;44.272;19.892;2023-07-24T00:40:50;15.00;;;13.63;;
10031;SDS011;5056;44.272;19.892;2023-07-24T00:43:17;14.35;;;13.23;;
10031;SDS011;5056;44.272;19.892;2023-07-24T00:45:45;15.63;;;14.15;;
10031;SDS011;5056;44.272;19.892;2023-07-24T00:48:15;14.73;;;13.40;;
10031;SDS011;5056;44.272;19.892;2023-07-24T00:50:42;14.32;;;13.15;;
10031;SDS011;5056;44.272;19.892;2023-07-24T00:53:11;15.68;;;14.35;;
10031;SDS011;5056;44.272;19.892;2023-07-24T00:55:40;15.15;;;13.98;;
10031;SDS011;5056;44.272;19.892;2023-07-24T00:58:10;14.02;;;12.73;;
10031;SDS011;5056;44.272;19.892;2023-07-24T01:00:38;15.55;;;14.18;;
10031;SDS011;5056;44.272;19.892;2023-07-24T01:03:07;13.90;;;12.80;;
10031;SDS011;5056;44.272;19.892;2023-07-24T01:05:34;14.30;;;13.23;;
10031;SDS011;5056;44.272;19.892;2023-07-24T01:08:00;15.27;;;13.85;;
10031;SDS011;5056;44.272;19.892;2023-07-24T01:10:27;14.40;;;13.20;;
10031;SDS011;5056;44.272;19.892;2023-07-24T01:12:55;14.95;;;13.60;;
10031;SDS011;5056;44.272;19.892;2023-07-24T01:15:28;14.13;;;12.90;;
10031;SDS011;5056;44.272;19.892;2023-07-24T01:17:58;13.77;;;12.68;;
10031;SDS011;5056;44.272;19.892;2023-07-24T01:20:29;13.82;;;12.65;;
10031;SDS011;5056;44.272;19.892;2023-07-24T01:23:01;14.50;;;13.20;;
10031;SDS011;5056;44.272;19.892;2023-07-24T01:25:48;15.07;;;13.88;;
10031;SDS011;5056;44.272;19.892;2023-07-24T01:28:21;13.70;;;12.52;;
10031;SDS011;5056;44.272;19.892;2023-07-24T01:30:48;15.07;;;13.50;;
10031;SDS011;5056;44.272;19.892;2023-07-24T01:33:15;14.23;;;12.93;;
10031;SDS011;5056;44.272;19.892;2023-07-24T01:35:42;14.43;;;13.23;;
10031;SDS011;5056;44.272;19.892;2023-07-24T01:38:10;14.18;;;13.07;;
10031;SDS011;5056;44.272;19.892;2023-07-24T01:40:38;14.75;;;13.55;;
10031;SDS011;5056;44.272;19.892;2023-07-24T01:43:08;14.45;;;13.07;;
10031;SDS011;5056;44.272;19.892;2023-07-24T01:45:35;14.57;;;13.35;;
10031;SDS011;5056;44.272;19.892;2023-07-24T01:48:03;15.38;;;13.98;;
10031;SDS011;5056;44.272;19.892;2023-07-24T01:50:30;14.75;;;13.45;;
10031;SDS011;5056;44.272;19.892;2023-07-24T01:52:57;14.38;;;13.25;;
10031;SDS011;5056;44.272;19.892;2023-07-24T01:55:24;14.32;;;13.15;;
10031;SDS011;5056;44.272;19.892;2023-07-24T01:57:51;15.82;;;14.20;;
10031;SDS011;5056;44.272;19.892;2023-07-24T02:00:20;14.40;;;13.18;;
10031;SDS011;5056;44.272;19.892;2023-07-24T02:02:47;14.63;;;13.05;;
10031;SDS011;5056;44.272;19.892;2023-07-24T02:05:14;14.60;;;13.25;;
10031;SDS011;5056;44.272;19.892;2023-07-24T02:07:41;15.02;;;13.73;;
10031;SDS011;5056;44.272;19.892;2023-07-24T02:10:09;14.45;;;13.25;;
10031;SDS011;5056;44.272;19.892;2023-07-24T02:12:36;14.57;;;13.38;;
10031;SDS011;5056;44.272;19.892;2023-07-24T02:15:03;15.15;;;13.95;;
10031;SDS011;5056;44.272;19.892;2023-07-24T02:17:32;14.68;;;13.27;;
10031;SDS011;5056;44.272;19.892;2023-07-24T02:20:08;15.10;;;13.70;;
10031;SDS011;5056;44.272;19.892;2023-07-24T02:22:36;14.48;;;13.27;;
10031;SDS011;5056;44.272;19.892;2023-07-24T02:25:03;14.15;;;13.05;;
10031;SDS011;5056;44.272;19.892;2023-07-24T02:27:31;14.85;;;13.68;;
10031;SDS011;5056;44.272;19.892;2023-07-24T02:30:00;15.23;;;13.82;;
10031;SDS011;5056;44.272;19.892;2023-07-24T02:32:27;14.27;;;13.15;;
10031;SDS011;5056;44.272;19.892;2023-07-24T02:34:55;14.75;;;13.55;;
10031;SDS011;5056;44.272;19.892;2023-07-24T02:37:22;15.13;;;13.82;;
10031;SDS011;5056;44.272;19.892;2023-07-24T02:39:49;14.40;;;13.15;;
10031;SDS011;5056;44.272;19.892;2023-07-24T02:42:16;13.93;;;12.82;;
10031;SDS011;5056;44.272;19.892;2023-07-24T02:44:43;14.68;;;13.48;;
10031;SDS011;5056;44.272;19.892;2023-07-24T02:47:10;15.30;;;13.43;;
10031;SDS011;5056;44.272;19.892;2023-07-24T02:49:36;15.43;;;14.02;;
10031;SDS011;5056;44.272;19.892;2023-07-24T02:52:06;14.48;;;13.18;;
10031;SDS011;5056;44.272;19.892;2023-07-24T02:54:32;14.25;;;12.95;;
10031;SDS011;5056;44.272;19.892;2023-07-24T02:56:59;13.80;;;12.68;;
10031;SDS011;5056;44.272;19.892;2023-07-24T02:59:27;14.23;;;13.10;;
10031;SDS011;5056;44.272;19.892;2023-07-24T03:01:56;15.57;;;13.85;;
10031;SDS011;5056;44.272;19.892;2023-07-24T03:04:24;15.52;;;14.07;;
10031;SDS011;5056;44.272;19.892;2023-07-24T03:06:51;14.45;;;13.15;;
10031;SDS011;5056;44.272;19.892;2023-07-24T03:09:19;14.65;;;13.43;;
10031;SDS011;5056;44.272;19.892;2023-07-24T03:11:46;13.85;;;12.55;;
10031;SDS011;5056;44.272;19.892;2023-07-24T03:14:13;14.10;;;12.85;;
10031;SDS011;5056;44.272;19.892;2023-07-24T03:16:40;14.35;;;12.95;;
10031;SDS011;5056;44.272;19.892;2023-07-24T03:19:07;14.55;;;13.25;;
10031;SDS011;5056;44.272;19.892;2023-07-24T03:21:35;13.93;;;12.73;;
10031;SDS011;5056;44.272;19.892;2023-07-24T03:24:02;14.48;;;12.63;;
10031;SDS011;5056;44.272;19.892;2023-07-24T03:26:30;14.27;;;13.00;;
10031;SDS011;5056;44.272;19.892;2023-07-24T03:28:57;14.13;;;12.80;;
10031;SDS011;5056;44.272;19.892;2023-07-24T03:31:24;15.02;;;13.48;;
10031;SDS011;5056;44.272;19.892;2023-07-24T03:33:51;14.77;;;13.35;;
10031;SDS011;5056;44.272;19.892;2023-07-24T03:36:18;15.18;;;13.10;;
10031;SDS011;5056;44.272;19.892;2023-07-24T03:38:45;14.82;;;13.32;;
10031;SDS011;5056;44.272;19.892;2023-07-24T03:41:12;13.35;;;12.15;;
10031;SDS011;5056;44.272;19.892;2023-07-24T03:43:40;13.98;;;12.60;;
10031;SDS011;5056;44.272;19.892;2023-07-24T03:46:07;13.68;;;12.45;;
10031;SDS011;5056;44.272;19.892;2023-07-24T03:48:34;14.88;;;13.02;;
10031;SDS011;5056;44.272;19.892;2023-07-24T03:51:01;14.07;;;12.80;;
10031;SDS011;5056;44.272;19.892;2023-07-24T03:53:29;13.85;;;12.65;;
10031;SDS011;5056;44.272;19.892;2023-07-24T03:55:55;12.48;;;11.48;;
10031;SDS011;5056;44.272;19.892;2023-07-24T03:58:23;13.52;;;12.25;;
10031;SDS011;5056;44.272;19.892;2023-07-24T04:00:52;13.43;;;12.23;;
10031;SDS011;5056;44.272;19.892;2023-07-24T04:03:19;13.35;;;12.15;;
10031;SDS011;5056;44.272;19.892;2023-07-24T04:05:45;13.52;;;12.32;;
10031;SDS011;5056;44.272;19.892;2023-07-24T04:08:12;12.80;;;11.60;;
10031;SDS011;5056;44.272;19.892;2023-07-24T04:10:39;12.80;;;11.60;;
10031;SDS011;5056;44.272;19.892;2023-07-24T04:13:07;12.63;;;11.35;;
10031;SDS011;5056;44.272;19.892;2023-07-24T04:15:34;12.43;;;11.25;;
10031;SDS011;5056;44.272;19.892;2023-07-24T04:18:02;12.57;;;11.32;;
10031;SDS011;5056;44.272;19.892;2023-07-24T04:20:29;14.00;;;11.55;;
10031;SDS011;5056;44.272;19.892;2023-07-24T04:22:56;12.45;;;11.25;;
10031;SDS011;5056;44.272;19.892;2023-07-24T04:25:23;13.40;;;11.48;;
10031;SDS011;5056;44.272;19.892;2023-07-24T04:27:50;13.40;;;12.05;;
10031;SDS011;5056;44.272;19.892;2023-07-24T04:30:17;13.02;;;11.68;;
10031;SDS011;5056;44.272;19.892;2023-07-24T04:32:44;12.45;;;11.13;;
10031;SDS011;5056;44.272;19.892;2023-07-24T04:35:12;13.20;;;11.90;;
10031;SDS011;5056;44.272;19.892;2023-07-24T04:37:39;12.77;;;11.57;;
10031;SDS011;5056;44.272;19.892;2023-07-24T04:40:06;12.38;;;11.27;;
10031;SDS011;5056;44.272;19.892;2023-07-24T04:42:34;12.93;;;11.80;;
10031;SDS011;5056;44.272;19.892;2023-07-24T04:45:01;13.30;;;12.10;;
10031;SDS011;5056;44.272;19.892;2023-07-24T04:47:28;12.63;;;11.40;;
10031;SDS011;5056;44.272;19.892;2023-07-24T04:49:55;12.63;;;11.48;;
10031;SDS011;5056;44.272;19.892;2023-07-24T04:52:23;13.50;;;11.18;;
10031;SDS011;5056;44.272;19.892;2023-07-24T04:54:50;12.85;;;11.57;;
10031;SDS011;5056;44.272;19.892;2023-07-24T04:57:17;12.13;;;11.02;;
10031;SDS011;5056;44.272;19.892;2023-07-24T04:59:43;14.20;;;11.98;;
10031;SDS011;5056;44.272;19.892;2023-07-24T05:02:10;12.93;;;11.38;;
10031;SDS011;5056;44.272;19.892;2023-07-24T05:04:37;12.13;;;10.93;;
10031;SDS011;5056;44.272;19.892;2023-07-24T05:07:04;13.02;;;11.73;;
10031;SDS011;5056;44.272;19.892;2023-07-24T05:09:32;12.50;;;11.27;;
10031;SDS011;5056;44.272;19.892;2023-07-24T05:11:59;12.50;;;11.27;;
10031;SDS011;5056;44.272;19.892;2023-07-24T05:14:26;12.93;;;11.73;;
10031;SDS011;5056;44.272;19.892;2023-07-24T05:16:53;12.55;;;11.45;;
10031;SDS011;5056;44.272;19.892;2023-07-24T05:19:20;12.90;;;11.30;;
10031;SDS011;5056;44.272;19.892;2023-07-24T05:21:47;13.68;;;11.63;;
10031;SDS011;5056;44.272;19.892;2023-07-24T05:24:14;12.35;;;11.05;;
10031;SDS011;5056;44.272;19.892;2023-07-24T05:26:43;12.88;;;11.68;;
10031;SDS011;5056;44.272;19.892;2023-07-24T05:29:11;13.63;;;12.27;;
10031;SDS011;5056;44.272;19.892;2023-07-24T05:31:38;14.05;;;12.65;;
10031;SDS011;5056;44.272;19.892;2023-07-24T05:34:05;13.90;;;12.50;;
10031;SDS011;5056;44.272;19.892;2023-07-24T05:36:31;13.68;;;12.27;;
10031;SDS011;5056;44.272;19.892;2023-07-24T05:38:59;12.57;;;11.27;;
10031;SDS011;5056;44.272;19.892;2023-07-24T05:41:27;13.75;;;12.13;;
10031;SDS011;5056;44.272;19.892;2023-07-24T05:43:56;12.32;;;11.13;;
10031;SDS011;5056;44.272;19.892;2023-07-24T05:46:23;12.73;;;11.52;;
10031;SDS011;5056;44.272;19.892;2023-07-24T05:52:12;12.50;;;10.90;;
10031;SDS011;5056;44.272;19.892;2023-07-24T05:54:39;12.45;;;11.25;;
10031;SDS011;5056;44.272;19.892;2023-07-24T05:57:06;11.70;;;10.55;;
10031;SDS011;5056;44.272;19.892;2023-07-24T05:59:36;12.77;;;11.50;;
10031;SDS011;5056;44.272;19.892;2023-07-24T06:02:03;15.43;;;12.52;;
10031;SDS011;5056;44.272;19.892;2023-07-24T06:04:30;13.07;;;11.77;;
10031;SDS011;5056;44.272;19.892;2023-07-24T06:06:58;18.40;;;12.88;;
10031;SDS011;5056;44.272;19.892;2023-07-24T06:09:25;13.15;;;11.82;;
10031;SDS011;5056;44.272;19.892;2023-07-24T06:11:52;12.73;;;11.55;;
10031;SDS011;5056;44.272;19.892;2023-07-24T06:14:19;12.13;;;10.80;;
10031;SDS011;5056;44.272;19.892;2023-07-24T06:16:47;11.98;;;10.95;;
10031;SDS011;5056;44.272;19.892;2023-07-24T06:19:15;11.68;;;10.52;;
10031;SDS011;5056;44.272;19.892;2023-07-24T06:21:42;11.93;;;10.73;;
10031;SDS011;5056;44.272;19.892;2023-07-24T06:24:09;12.20;;;11.10;;
10031;SDS011;5056;44.272;19.892;2023-07-24T06:26:37;13.93;;;11.30;;
10031;SDS011;5056;44.272;19.892;2023-07-24T06:29:04;13.00;;;11.57;;
10031;SDS011;5056;44.272;19.892;2023-07-24T06:31:31;13.23;;;11.55;;
10031;SDS011;5056;44.272;19.892;2023-07-24T06:34:00;12.98;;;11.32;;
10031;SDS011;5056;44.272;19.892;2023-07-24T06:36:27;12.38;;;11.13;;
10031;SDS011;5056;44.272;19.892;2023-07-24T06:38:54;13.80;;;11.98;;
10031;SDS011;5056;44.272;19.892;2023-07-24T06:41:21;14.02;;;11.88;;
10031;SDS011;5056;44.272;19.892;2023-07-24T06:43:48;15.25;;;12.70;;
10031;SDS011;5056;44.272;19.892;2023-07-24T06:49:15;15.00;;;13.00;;
10031;SDS011;5056;44.272;19.892;2023-07-24T06:51:42;13.23;;;11.90;;
10031;SDS011;5056;44.272;19.892;2023-07-24T06:56:50;13.45;;;12.07;;
10031;SDS011;5056;44.272;19.892;2023-07-24T06:59:16;16.23;;;12.80;;
10031;SDS011;5056;44.272;19.892;2023-07-24T07:01:43;15.18;;;13.20;;
10031;SDS011;5056;44.272;19.892;2023-07-24T07:04:16;16.95;;;12.93;;
10031;SDS011;5056;44.272;19.892;2023-07-24T07:06:43;14.70;;;12.57;;
10031;SDS011;5056;44.272;19.892;2023-07-24T07:09:09;16.17;;;12.88;;
10031;SDS011;5056;44.272;19.892;2023-07-24T07:11:36;17.17;;;11.85;;
10031;SDS011;5056;44.272;19.892;2023-07-24T07:14:04;13.80;;;12.05;;
10031;SDS011;5056;44.272;19.892;2023-07-24T07:16:33;15.10;;;12.65;;
10031;SDS011;5056;44.272;19.892;2023-07-24T07:19:01;12.23;;;11.02;;
10031;SDS011;5056;44.272;19.892;2023-07-24T07:21:30;12.07;;;10.93;;
10031;SDS011;5056;44.272;19.892;2023-07-24T07:23:56;13.35;;;11.45;;
10031;SDS011;5056;44.272;19.892;2023-07-24T07:26:23;13.98;;;12.30;;
10031;SDS011;5056;44.272;19.892;2023-07-24T07:28:50;14.75;;;13.25;;
10031;SDS011;5056;44.272;19.892;2023-07-24T07:31:17;15.98;;;13.52;;
10031;SDS011;5056;44.272;19.892;2023-07-24T07:33:45;17.48;;;13.27;;
10031;SDS011;5056;44.272;19.892;2023-07-24T07:36:18;17.02;;;13.07;;
10031;SDS011;5056;44.272;19.892;2023-07-24T07:38:49;16.73;;;12.80;;
10031;SDS011;5056;44.272;19.892;2023-07-24T07:41:16;15.00;;;13.48;;
10031;SDS011;5056;44.272;19.892;2023-07-24T07:43:43;17.15;;;14.02;;
10031;SDS011;5056;44.272;19.892;2023-07-24T07:46:09;18.05;;;14.00;;
10031;SDS011;5056;44.272;19.892;2023-07-24T07:48:37;16.75;;;12.60;;
10031;SDS011;5056;44.272;19.892;2023-07-24T07:51:03;16.40;;;12.90;;
10031;SDS011;5056;44.272;19.892;2023-07-24T07:53:30;14.85;;;12.43;;
10031;SDS011;5056;44.272;19.892;2023-07-24T07:56:01;16.77;;;13.02;;
10031;SDS011;5056;44.272;19.892;2023-07-24T07:58:28;17.35;;;13.32;;
10031;SDS011;5056;44.272;19.892;2023-07-24T08:00:55;15.25;;;12.40;;
10031;SDS011;5056;44.272;19.892;2023-07-24T08:03:22;16.65;;;13.57;;
10031;SDS011;5056;44.272;19.892;2023-07-24T08:05:49;15.05;;;13.43;;
10031;SDS011;5056;44.272;19.892;2023-07-24T08:08:16;13.68;;;12.27;;
10031;SDS011;5056;44.272;19.892;2023-07-24T08:10:43;14.20;;;12.82;;
10031;SDS011;5056;44.272;19.892;2023-07-24T08:13:12;14.82;;;12.70;;
10031;SDS011;5056;44.272;19.892;2023-07-24T08:15:39;13.45;;;12.25;;
10031;SDS011;5056;44.272;19.892;2023-07-24T08:18:12;14.40;;;12.90;;
10031;SDS011;5056;44.272;19.892;2023-07-24T08:20:39;17.67;;;13.70;;
10031;SDS011;5056;44.272;19.892;2023-07-24T08:23:15;15.13;;;13.20;;
10031;SDS011;5056;44.272;19.892;2023-07-24T08:25:50;15.20;;;13.80;;
10031;SDS011;5056;44.272;19.892;2023-07-24T08:31:15;17.33;;;13.43;;
10031;SDS011;5056;44.272;19.892;2023-07-24T08:33:41;13.73;;;12.52;;
10031;SDS011;5056;44.272;19.892;2023-07-24T08:36:08;14.65;;;13.43;;
10031;SDS011;5056;44.272;19.892;2023-07-24T08:38:36;14.10;;;12.82;;
10031;SDS011;5056;44.272;19.892;2023-07-24T08:41:04;14.73;;;13.40;;
10031;SDS011;5056;44.272;19.892;2023-07-24T08:43:32;13.65;;;12.55;;
10031;SDS011;5056;44.272;19.892;2023-07-24T08:45:59;14.38;;;13.07;;
10031;SDS011;5056;44.272;19.892;2023-07-24T08:48:28;14.07;;;12.77;;
10031;SDS011;5056;44.272;19.892;2023-07-24T08:50:56;13.43;;;12.13;;
10031;SDS011;5056;44.272;19.892;2023-07-24T08:53:24;14.77;;;13.38;;
10031;SDS011;5056;44.272;19.892;2023-07-24T08:55:51;13.55;;;12.23;;
10031;SDS011;5056;44.272;19.892;2023-07-24T08:58:19;13.55;;;12.25;;
10031;SDS011;5056;44.272;19.892;2023-07-24T09:00:59;13.25;;;12.07;;
10031;SDS011;5056;44.272;19.892;2023-07-24T09:03:29;13.38;;;12.18;;
10031;SDS011;5056;44.272;19.892;2023-07-24T09:05:58;13.70;;;12.35;;
10031;SDS011;5056;44.272;19.892;2023-07-24T09:11:25;12.30;;;11.15;;
10031;SDS011;5056;44.272;19.892;2023-07-24T09:13:54;12.25;;;11.15;;
10031;SDS011;5056;44.272;19.892;2023-07-24T09:16:21;13.82;;;12.55;;
10031;SDS011;5056;44.272;19.892;2023-07-24T09:18:50;13.55;;;12.25;;
10031;SDS011;5056;44.272;19.892;2023-07-24T09:21:26;13.75;;;12.32;;
10031;SDS011;5056;44.272;19.892;2023-07-24T09:23:54;12.57;;;11.48;;
10031;SDS011;5056;44.272;19.892;2023-07-24T09:26:20;13.63;;;12.32;;
10031;SDS011;5056;44.272;19.892;2023-07-24T09:28:51;13.15;;;11.85;;
10031;SDS011;5056;44.272;19.892;2023-07-24T09:31:18;13.27;;;12.00;;
10031;SDS011;5056;44.272;19.892;2023-07-24T09:33:45;12.70;;;11.60;;
10031;SDS011;5056;44.272;19.892;2023-07-24T09:36:14;13.07;;;11.88;;
10031;SDS011;5056;44.272;19.892;2023-07-24T09:38:40;13.52;;;12.23;;
10031;SDS011;5056;44.272;19.892;2023-07-24T09:41:08;12.60;;;11.40;;
10031;SDS011;5056;44.272;19.892;2023-07-24T09:43:34;11.77;;;10.68;;
10031;SDS011;5056;44.272;19.892;2023-07-24T09:46:01;11.50;;;10.40;;
10031;SDS011;5056;44.272;19.892;2023-07-24T09:48:30;11.07;;;10.05;;
10031;SDS011;5056;44.272;19.892;2023-07-24T09:50:59;10.93;;;9.93;;
10031;SDS011;5056;44.272;19.892;2023-07-24T09:53:29;10.88;;;9.90;;
10031;SDS011;5056;44.272;19.892;2023-07-24T09:56:00;11.20;;;10.10;;
10031;SDS011;5056;44.272;19.892;2023-07-24T09:58:28;12.50;;;11.20;;
10031;SDS011;5056;44.272;19.892;2023-07-24T10:00:56;11.00;;;9.82;;
10031;SDS011;5056;44.272;19.892;2023-07-24T10:03:23;12.02;;;10.93;;
10031;SDS011;5056;44.272;19.892;2023-07-24T10:05:52;11.43;;;10.48;;
10031;SDS011;5056;44.272;19.892;2023-07-24T10:08:19;11.57;;;10.48;;
10031;SDS011;5056;44.272;19.892;2023-07-24T10:10:50;11.70;;;10.50;;
10031;SDS011;5056;44.272;19.892;2023-07-24T10:13:19;11.95;;;10.85;;
10031;SDS011;5056;44.272;19.892;2023-07-24T10:15:48;11.07;;;9.95;;
10031;SDS011;5056;44.272;19.892;2023-07-24T10:18:16;11.50;;;10.35;;
10031;SDS011;5056;44.272;19.892;2023-07-24T10:20:43;11.05;;;10.00;;
10031;SDS011;5056;44.272;19.892;2023-07-24T10:23:11;11.23;;;10.15;;
10031;SDS011;5056;44.272;19.892;2023-07-24T10:25:44;11.18;;;10.15;;
10031;SDS011;5056;44.272;19.892;2023-07-24T10:28:13;11.05;;;9.98;;
10031;SDS011;5056;44.272;19.892;2023-07-24T10:30:43;12.07;;;10.60;;
10031;SDS011;5056;44.272;19.892;2023-07-24T10:33:11;11.40;;;10.23;;
10031;SDS011;5056;44.272;19.892;2023-07-24T10:35:40;11.18;;;10.07;;
10031;SDS011;5056;44.272;19.892;2023-07-24T10:38:08;11.73;;;10.52;;
10031;SDS011;5056;44.272;19.892;2023-07-24T10:40:35;11.38;;;10.20;;
10031;SDS011;5056;44.272;19.892;2023-07-24T10:43:05;10.48;;;9.57;;
10031;SDS011;5056;44.272;19.892;2023-07-24T10:45:41;11.00;;;9.93;;
10031;SDS011;5056;44.272;19.892;2023-07-24T10:48:09;10.60;;;9.52;;
10031;SDS011;5056;44.272;19.892;2023-07-24T10:50:37;10.90;;;9.82;;
10031;SDS011;5056;44.272;19.892;2023-07-24T10:53:06;10.27;;;9.18;;
10031;SDS011;5056;44.272;19.892;2023-07-24T10:55:34;13.05;;;10.68;;
10031;SDS011;5056;44.272;19.892;2023-07-24T10:58:01;11.05;;;10.05;;
10031;SDS011;5056;44.272;19.892;2023-07-24T11:00:28;11.02;;;9.93;;
10031;SDS011;5056;44.272;19.892;2023-07-24T11:02:57;11.25;;;10.20;;
10031;SDS011;5056;44.272;19.892;2023-07-24T11:05:24;9.60;;;8.60;;
10031;SDS011;5056;44.272;19.892;2023-07-24T11:07:51;10.98;;;9.98;;
10031;SDS011;5056;44.272;19.892;2023-07-24T11:10:18;12.10;;;10.98;;
10031;SDS011;5056;44.272;19.892;2023-07-24T11:12:45;11.02;;;9.95;;
10031;SDS011;5056;44.272;19.892;2023-07-24T11:15:13;10.43;;;9.43;;
10031;SDS011;5056;44.272;19.892;2023-07-24T11:17:41;11.85;;;10.70;;
10031;SDS011;5056;44.272;19.892;2023-07-24T11:20:14;10.68;;;9.75;;
10031;SDS011;5056;44.272;19.892;2023-07-24T11:22:42;11.07;;;10.00;;
10031;SDS011;5056;44.272;19.892;2023-07-24T11:25:10;11.27;;;10.18;;
10031;SDS011;5056;44.272;19.892;2023-07-24T11:27:38;10.93;;;9.93;;
10031;SDS011;5056;44.272;19.892;2023-07-24T11:30:08;11.23;;;10.13;;
10031;SDS011;5056;44.272;19.892;2023-07-24T11:32:37;11.13;;;10.02;;
10031;SDS011;5056;44.272;19.892;2023-07-24T11:35:05;12.13;;;10.00;;
10031;SDS011;5056;44.272;19.892;2023-07-24T11:37:35;12.02;;;10.80;;
10031;SDS011;5056;44.272;19.892;2023-07-24T11:40:03;10.40;;;9.50;;
10031;SDS011;5056;44.272;19.892;2023-07-24T11:42:36;12.25;;;9.82;;
10031;SDS011;5056;44.272;19.892;2023-07-24T11:45:05;11.65;;;10.45;;
10031;SDS011;5056;44.272;19.892;2023-07-24T11:47:43;11.25;;;10.25;;
10031;SDS011;5056;44.272;19.892;2023-07-24T11:50:11;12.07;;;10.77;;
10031;SDS011;5056;44.272;19.892;2023-07-24T11:52:40;13.48;;;11.25;;
10031;SDS011;5056;44.272;19.892;2023-07-24T11:55:09;11.75;;;10.55;;
10031;SDS011;5056;44.272;19.892;2023-07-24T11:57:37;11.70;;;10.60;;
10031;SDS011;5056;44.272;19.892;2023-07-24T12:00:04;11.40;;;10.35;;
10031;SDS011;5056;44.272;19.892;2023-07-24T12:02:37;11.90;;;10.70;;
10031;SDS011;5056;44.272;19.892;2023-07-24T12:05:06;12.02;;;10.82;;
10031;SDS011;5056;44.272;19.892;2023-07-24T12:07:34;12.48;;;11.02;;
10031;SDS011;5056;44.272;19.892;2023-07-24T12:10:05;13.70;;;11.10;;
10031;SDS011;5056;44.272;19.892;2023-07-24T12:12:37;11.88;;;10.73;;
10031;SDS011;5056;44.272;19.892;2023-07-24T12:18:00;11.68;;;10.57;;
10031;SDS011;5056;44.272;19.892;2023-07-24T12:20:27;11.40;;;10.40;;
10031;SDS011;5056;44.272;19.892;2023-07-24T12:22:56;12.65;;;10.98;;
10031;SDS011;5056;44.272;19.892;2023-07-24T12:25:25;12.88;;;11.57;;
10031;SDS011;5056;44.272;19.892;2023-07-24T12:27:54;13.68;;;12.18;;
10031;SDS011;5056;44.272;19.892;2023-07-24T12:30:21;13.98;;;10.73;;
10031;SDS011;5056;44.272;19.892;2023-07-24T12:32:48;14.25;;;11.15;;
10031;SDS011;5056;44.272;19.892;2023-07-24T12:35:16;12.02;;;10.85;;
10031;SDS011;5056;44.272;19.892;2023-07-24T12:37:47;11.57;;;10.38;;
10031;SDS011;5056;44.272;19.892;2023-07-24T12:40:14;12.93;;;10.88;;
10031;SDS011;5056;44.272;19.892;2023-07-24T12:42:43;12.88;;;11.68;;
10031;SDS011;5056;44.272;19.892;2023-07-24T12:45:10;12.48;;;11.18;;
10031;SDS011;5056;44.272;19.892;2023-07-24T12:47:38;13.23;;;12.02;;
10031;SDS011;5056;44.272;19.892;2023-07-24T12:50:05;11.27;;;10.23;;
10031;SDS011;5056;44.272;19.892;2023-07-24T12:52:41;12.27;;;11.07;;
10031;SDS011;5056;44.272;19.892;2023-07-24T12:55:08;12.10;;;10.73;;
10031;SDS011;5056;44.272;19.892;2023-07-24T12:57:35;14.07;;;11.55;;
10031;SDS011;5056;44.272;19.892;2023-07-24T13:00:04;12.07;;;10.88;;
10031;SDS011;5056;44.272;19.892;2023-07-24T13:02:34;12.15;;;10.80;;
10031;SDS011;5056;44.272;19.892;2023-07-24T13:05:00;12.57;;;11.20;;
10031;SDS011;5056;44.272;19.892;2023-07-24T13:07:28;12.68;;;11.48;;
10031;SDS011;5056;44.272;19.892;2023-07-24T13:09:55;12.43;;;11.13;;
10031;SDS011;5056;44.272;19.892;2023-07-24T13:12:22;13.15;;;10.60;;
10031;SDS011;5056;44.272;19.892;2023-07-24T13:14:49;11.88;;;10.88;;
10031;SDS011;5056;44.272;19.892;2023-07-24T13:17:18;12.40;;;11.02;;
10031;SDS011;5056;44.272;19.892;2023-07-24T13:19:45;11.98;;;10.88;;
10031;SDS011;5056;44.272;19.892;2023-07-24T13:22:12;14.88;;;11.82;;
10031;SDS011;5056;44.272;19.892;2023-07-24T13:24:39;13.50;;;11.82;;
10031;SDS011;5056;44.272;19.892;2023-07-24T13:27:07;13.45;;;12.13;;
10031;SDS011;5056;44.272;19.892;2023-07-24T13:29:37;12.07;;;10.77;;
10031;SDS011;5056;44.272;19.892;2023-07-24T13:32:05;11.68;;;10.32;;
10031;SDS011;5056;44.272;19.892;2023-07-24T13:34:37;13.13;;;11.68;;
10031;SDS011;5056;44.272;19.892;2023-07-24T13:37:04;11.73;;;10.73;;
10031;SDS011;5056;44.272;19.892;2023-07-24T13:39:32;10.90;;;9.90;;
10031;SDS011;5056;44.272;19.892;2023-07-24T13:41:59;12.23;;;11.02;;
10031;SDS011;5056;44.272;19.892;2023-07-24T13:44:27;12.25;;;11.00;;
10031;SDS011;5056;44.272;19.892;2023-07-24T13:46:54;15.05;;;11.88;;
10031;SDS011;5056;44.272;19.892;2023-07-24T13:49:21;13.45;;;11.30;;
10031;SDS011;5056;44.272;19.892;2023-07-24T13:51:49;12.95;;;11.75;;
10031;SDS011;5056;44.272;19.892;2023-07-24T13:54:16;12.68;;;11.40;;
10031;SDS011;5056;44.272;19.892;2023-07-24T13:56:43;11.98;;;10.77;;
10031;SDS011;5056;44.272;19.892;2023-07-24T13:59:10;12.52;;;11.40;;
10031;SDS011;5056;44.272;19.892;2023-07-24T14:01:38;11.63;;;10.63;;
10031;SDS011;5056;44.272;19.892;2023-07-24T14:04:05;12.60;;;11.40;;
10031;SDS011;5056;44.272;19.892;2023-07-24T14:06:32;12.23;;;11.10;;
10031;SDS011;5056;44.272;19.892;2023-07-24T14:09:00;11.98;;;10.88;;
10031;SDS011;5056;44.272;19.892;2023-07-24T14:11:28;12.57;;;11.38;;
10031;SDS011;5056;44.272;19.892;2023-07-24T14:13:58;13.80;;;12.18;;
10031;SDS011;5056;44.272;19.892;2023-07-24T14:16:26;12.43;;;11.05;;
10031;SDS011;5056;44.272;19.892;2023-07-24T14:18:53;13.85;;;11.32;;
10031;SDS011;5056;44.272;19.892;2023-07-24T14:21:21;14.73;;;12.63;;
10031;SDS011;5056;44.272;19.892;2023-07-24T14:23:47;12.95;;;11.25;;
10031;SDS011;5056;44.272;19.892;2023-07-24T14:26:16;14.85;;;11.45;;
10031;SDS011;5056;44.272;19.892;2023-07-24T14:28:43;13.43;;;10.98;;
10031;SDS011;5056;44.272;19.892;2023-07-24T14:31:11;14.05;;;11.55;;
10031;SDS011;5056;44.272;19.892;2023-07-24T14:33:38;14.07;;;11.50;;
10031;SDS011;5056;44.272;19.892;2023-07-24T14:36:06;13.15;;;11.93;;
10031;SDS011;5056;44.272;19.892;2023-07-24T14:38:33;12.95;;;11.25;;
10031;SDS011;5056;44.272;19.892;2023-07-24T14:41:00;13.82;;;12.30;;
10031;SDS011;5056;44.272;19.892;2023-07-24T14:43:28;12.23;;;11.02;;
10031;SDS011;5056;44.272;19.892;2023-07-24T14:45:56;13.25;;;11.85;;